Time;durP1;ratioP1;P1;durP2;ratioP2;P2;SDS_P1;SDS_P2;PMS_P1;PMS_P2;Temp;Humidity;BMP_temperature;BMP_pressure;BME280_temperature;BME280_humidity;BME280_pressure;Samples;Min_cycle;Max_cycle;Signal;HPM_P1;HPM_P2
2022/08/08 00:00:43;;;;;;;9.45;3.70;;;;;;;;;;6179731;23;20433;-95
2022/08/08 00:03:30;;;;;;;10.68;3.95;;;;;;;;;;6181020;23;20008;-95
2022/08/08 00:06:01;;;;;;;9.18;3.65;;;;;;;;;;6179652;23;20382;-95
2022/08/08 00:08:40;;;;;;;11.80;3.90;;;;;;;;;;6180931;23;20399;-96
2022/08/08 00:11:20;;;;;;;7.82;3.97;;;;;;;;;;6179452;23;20012;-95
2022/08/08 00:14:04;;;;;;;10.18;4.50;;;;;;;;;;6181233;23;20481;-96
2022/08/08 00:16:43;;;;;;;10.88;4.30;;;;;;;;;;6180736;23;20009;-95
2022/08/08 00:19:27;;;;;;;9.73;4.60;;;;;;;;;;6181546;23;20028;-96
2022/08/08 00:22:03;;;;;;;13.00;3.90;;;;;;;;;;6181085;23;20009;-95
2022/08/08 00:24:34;;;;;;;8.93;4.72;;;;;;;;;;6181028;23;20028;-96
2022/08/08 00:27:05;;;;;;;7.55;4.60;;;;;;;;;;6179016;23;20009;-93
2022/08/08 00:29:51;;;;;;;9.93;4.47;;;;;;;;;;6185076;22;20123;-95
2022/08/08 00:32:28;;;;;;;7.35;4.43;;;;;;;;;;6179547;23;20019;-96
2022/08/08 00:35:14;;;;;;;10.82;4.63;;;;;;;;;;6179058;23;20340;-96
2022/08/08 00:37:58;;;;;;;15.55;4.78;;;;;;;;;;6180008;23;20308;-94
2022/08/08 00:40:25;;;;;;;7.65;4.57;;;;;;;;;;6177880;23;20386;-94
2022/08/08 00:43:11;;;;;;;9.32;4.38;;;;;;;;;;6177662;23;20538;-96
2022/08/08 00:45:39;;;;;;;9.18;3.95;;;;;;;;;;6180504;23;20468;-95
2022/08/08 00:48:06;;;;;;;7.22;3.92;;;;;;;;;;6178959;23;20043;-93
2022/08/08 00:50:40;;;;;;;11.95;4.15;;;;;;;;;;6177894;23;20008;-95
2022/08/08 00:53:10;;;;;;;5.82;3.47;;;;;;;;;;6206964;23;20005;-96
2022/08/08 00:55:55;;;;;;;10.32;3.90;;;;;;;;;;6178043;23;20013;-94
2022/08/08 00:58:28;;;;;;;7.13;3.50;;;;;;;;;;6178099;23;20004;-95
2022/08/08 01:01:18;;;;;;;6.82;3.40;;;;;;;;;;6178771;23;20441;-95
2022/08/08 01:04:05;;;;;;;14.73;5.93;;;;;;;;;;6161803;23;20468;-96
2022/08/08 01:07:10;;;;;;;15.98;3.80;;;;;;;;;;6180055;23;20005;-94
2022/08/08 01:09:46;;;;;;;11.88;4.07;;;;;;;;;;6180123;23;20032;-96
2022/08/08 01:12:35;;;;;;;5.13;3.40;;;;;;;;;;6176994;23;20447;-96
2022/08/08 01:15:20;;;;;;;12.27;3.70;;;;;;;;;;6178554;23;20008;-93
2022/08/08 01:18:05;;;;;;;5.63;3.80;;;;;;;;;;6178031;23;20012;-93
2022/08/08 01:20:34;;;;;;;7.85;3.58;;;;;;;;;;6179331;23;20012;-93
2022/08/08 01:23:06;;;;;;;15.40;3.92;;;;;;;;;;6180202;23;20013;-95
2022/08/08 01:25:44;;;;;;;8.38;4.03;;;;;;;;;;6179110;23;20054;-94
2022/08/08 01:28:23;;;;;;;11.40;4.13;;;;;;;;;;6182195;22;20346;-96
2022/08/08 01:31:05;;;;;;;7.38;3.40;;;;;;;;;;6182028;23;20088;-93
2022/08/08 01:33:38;;;;;;;7.18;3.85;;;;;;;;;;6186605;23;20012;-94
2022/08/08 01:36:20;;;;;;;9.07;3.88;;;;;;;;;;6219385;23;20010;-94
2022/08/08 01:39:10;;;;;;;8.20;4.10;;;;;;;;;;6192713;23;20004;-94
2022/08/08 01:42:02;;;;;;;4.70;3.72;;;;;;;;;;6198574;23;20012;-93
2022/08/08 01:44:41;;;;;;;10.75;3.70;;;;;;;;;;6200704;23;20063;-94
2022/08/08 01:47:27;;;;;;;8.00;4.15;;;;;;;;;;6209459;23;20027;-92
2022/08/08 01:50:01;;;;;;;6.95;3.92;;;;;;;;;;6209520;23;20000;-93
2022/08/08 01:52:44;;;;;;;7.53;3.92;;;;;;;;;;6209807;23;20013;-93
2022/08/08 01:55:27;;;;;;;10.88;4.57;;;;;;;;;;6208843;23;20023;-92
2022/08/08 01:58:19;;;;;;;8.13;4.10;;;;;;;;;;6207419;23;20012;-93
2022/08/08 02:01:11;;;;;;;6.85;3.88;;;;;;;;;;6182649;23;20053;-96
2022/08/08 02:03:52;;;;;;;6.07;3.47;;;;;;;;;;6188262;23;20015;-95
2022/08/08 02:06:38;;;;;;;9.00;3.85;;;;;;;;;;6182997;23;20499;-95
2022/08/08 02:09:10;;;;;;;9.05;4.55;;;;;;;;;;6183602;23;20071;-96
2022/08/08 02:11:43;;;;;;;13.77;3.80;;;;;;;;;;6182137;23;20008;-96
2022/08/08 02:14:33;;;;;;;9.82;4.50;;;;;;;;;;6182800;23;20556;-93
2022/08/08 02:17:07;;;;;;;9.02;4.18;;;;;;;;;;6181720;23;20004;-95
2022/08/08 02:19:48;;;;;;;16.05;4.32;;;;;;;;;;6182559;23;20013;-94
2022/08/08 02:22:36;;;;;;;9.45;4.60;;;;;;;;;;6180803;23;20040;-93
2022/08/08 02:25:21;;;;;;;12.80;4.38;;;;;;;;;;6181722;23;20124;-93
2022/08/08 02:27:58;;;;;;;7.53;4.35;;;;;;;;;;6189728;22;20038;-94
2022/08/08 02:30:43;;;;;;;10.55;4.75;;;;;;;;;;6214831;23;20484;-94
2022/08/08 02:33:14;;;;;;;10.88;4.30;;;;;;;;;;6211288;23;20062;-95
2022/08/08 02:35:43;;;;;;;13.85;4.43;;;;;;;;;;6212121;23;20012;-96
2022/08/08 02:38:28;;;;;;;7.90;3.97;;;;;;;;;;6208612;23;20042;-96
2022/08/08 02:41:06;;;;;;;5.93;3.83;;;;;;;;;;6211230;23;20093;-93
2022/08/08 02:43:38;;;;;;;5.88;3.97;;;;;;;;;;6211337;23;20506;-96
2022/08/08 02:46:11;;;;;;;9.88;3.83;;;;;;;;;;6208267;23;20000;-95
2022/08/08 02:48:55;;;;;;;7.07;3.97;;;;;;;;;;6211922;23;20000;-95
2022/08/08 02:51:44;;;;;;;8.68;4.47;;;;;;;;;;6209508;23;20195;-95
2022/08/08 02:54:23;;;;;;;15.45;4.57;;;;;;;;;;6210174;23;20066;-96
2022/08/08 02:57:01;;;;;;;8.73;3.67;;;;;;;;;;6206806;23;20217;-95
2022/08/08 02:59:49;;;;;;;11.82;5.10;;;;;;;;;;6210891;23;20019;-96
2022/08/08 03:02:48;;;;;;;10.82;4.20;;;;;;;;;;6208788;23;20012;-95
2022/08/08 03:05:25;;;;;;;10.27;3.72;;;;;;;;;;6210576;23;20062;-95
2022/08/08 03:08:08;;;;;;;12.95;4.38;;;;;;;;;;6212513;23;20158;-96
2022/08/08 03:10:35;;;;;;;11.65;4.22;;;;;;;;;;6208778;23;20015;-95
2022/08/08 03:13:08;;;;;;;9.20;3.85;;;;;;;;;;6211396;23;20467;-95
2022/08/08 03:15:54;;;;;;;11.90;3.92;;;;;;;;;;6209691;23;20515;-96
2022/08/08 03:18:30;;;;;;;12.40;3.85;;;;;;;;;;6211996;23;20015;-96
2022/08/08 03:20:59;;;;;;;8.73;3.38;;;;;;;;;;6209384;23;20019;-96
2022/08/08 03:23:29;;;;;;;10.35;3.65;;;;;;;;;;6209576;23;20008;-95
2022/08/08 03:26:00;;;;;;;6.28;3.67;;;;;;;;;;6236097;23;20344;-93
2022/08/08 03:29:01;;;;;;;7.78;3.55;;;;;;;;;;6190201;22;20337;-96
2022/08/08 03:34:17;;;;;;;10.45;3.58;;;;;;;;;;6237046;23;20065;-94
2022/08/08 03:36:47;;;;;;;6.90;3.65;;;;;;;;;;6209441;23;20011;-95
2022/08/08 03:39:16;;;;;;;8.30;3.55;;;;;;;;;;6208956;23;20087;-95
2022/08/08 03:41:46;;;;;;;10.45;3.88;;;;;;;;;;6207927;23;20795;-95
2022/08/08 03:44:16;;;;;;;7.63;4.25;;;;;;;;;;6207858;23;20397;-95
2022/08/08 03:46:50;;;;;;;7.97;3.50;;;;;;;;;;6207630;23;20004;-94
2022/08/08 03:49:22;;;;;;;10.50;4.32;;;;;;;;;;6209181;23;20452;-96
2022/08/08 03:51:56;;;;;;;16.05;4.57;;;;;;;;;;6207322;23;20043;-95
2022/08/08 03:54:26;;;;;;;8.65;4.13;;;;;;;;;;6209945;23;20543;-92
2022/08/08 03:56:55;;;;;;;11.38;3.78;;;;;;;;;;6208257;23;20306;-96
2022/08/08 03:59:29;;;;;;;13.82;5.65;;;;;;;;;;6209182;23;20422;-95
2022/08/08 04:02:02;;;;;;;7.45;3.80;;;;;;;;;;6208159;23;20010;-96
2022/08/08 04:04:38;;;;;;;10.98;3.53;;;;;;;;;;6207432;23;20008;-96
2022/08/08 04:07:05;;;;;;;;;;;;;;;;;;6210367;23;20059;-94
2022/08/08 04:09:35;;;;;;;9.75;4.90;;;;;;;;;;6210248;23;19919;-95
2022/08/08 04:12:09;;;;;;;5.45;3.80;;;;;;;;;;6206899;23;20004;-96
2022/08/08 04:14:36;;;;;;;11.10;3.80;;;;;;;;;;6207534;23;20842;-94
2022/08/08 04:17:03;;;;;;;5.88;3.53;;;;;;;;;;6208370;23;20004;-95
2022/08/08 04:19:32;;;;;;;7.80;3.75;;;;;;;;;;6209151;23;20271;-95
2022/08/08 04:21:59;;;;;;;12.45;4.78;;;;;;;;;;6208484;23;20016;-95
2022/08/08 04:24:26;;;;;;;12.20;4.32;;;;;;;;;;6236803;23;20083;-95
2022/08/08 04:26:54;;;;;;;10.02;3.80;;;;;;;;;;6207766;23;20008;-95
2022/08/08 04:29:23;;;;;;;11.13;4.78;;;;;;;;;;6191671;22;20441;-95
2022/08/08 04:31:51;;;;;;;10.70;4.10;;;;;;;;;;6178887;23;20121;-95
2022/08/08 04:34:20;;;;;;;12.43;4.30;;;;;;;;;;6178538;23;20570;-95
2022/08/08 04:36:46;;;;;;;11.18;5.03;;;;;;;;;;6179202;23;20011;-95
2022/08/08 04:39:14;;;;;;;13.82;3.97;;;;;;;;;;6179436;23;20066;-93
2022/08/08 04:41:43;;;;;;;14.18;4.95;;;;;;;;;;6177298;23;20104;-95
2022/08/08 04:44:15;;;;;;;7.88;4.70;;;;;;;;;;6179215;23;20504;-96
2022/08/08 04:46:43;;;;;;;13.43;4.22;;;;;;;;;;6177251;23;20332;-95
2022/08/08 04:49:10;;;;;;;9.23;3.85;;;;;;;;;;6180060;23;20005;-95
2022/08/08 04:51:38;;;;;;;13.63;4.18;;;;;;;;;;6176022;23;20032;-94
2022/08/08 04:54:06;;;;;;;12.20;4.07;;;;;;;;;;6177021;23;20542;-96
2022/08/08 04:56:36;;;;;;;11.82;4.28;;;;;;;;;;6176403;23;20345;-96
2022/08/08 04:59:04;;;;;;;11.57;4.28;;;;;;;;;;6180347;23;20075;-95
2022/08/08 05:01:34;;;;;;;10.55;4.68;;;;;;;;;;6180121;23;20333;-96
2022/08/08 05:04:02;;;;;;;8.23;3.92;;;;;;;;;;6178412;23;20437;-94
2022/08/08 05:06:30;;;;;;;10.52;4.30;;;;;;;;;;6180016;23;20167;-95
2022/08/08 05:08:56;;;;;;;11.02;4.72;;;;;;;;;;6180429;23;20504;-95
2022/08/08 05:11:25;;;;;;;9.60;4.50;;;;;;;;;;6178104;23;20067;-95
2022/08/08 05:13:52;;;;;;;11.65;4.00;;;;;;;;;;6180915;23;20100;-95
2022/08/08 05:16:21;;;;;;;9.07;3.72;;;;;;;;;;6180087;23;20499;-94
2022/08/08 05:18:49;;;;;;;7.22;3.78;;;;;;;;;;6182082;23;20035;-96
2022/08/08 05:21:16;;;;;;;10.05;4.40;;;;;;;;;;6182295;23;20015;-96
2022/08/08 05:23:45;;;;;;;11.82;5.00;;;;;;;;;;6182979;23;20040;-95
2022/08/08 05:26:13;;;;;;;7.80;4.32;;;;;;;;;;6181156;23;20009;-93
2022/08/08 05:28:42;;;;;;;7.30;3.88;;;;;;;;;;6194818;22;20020;-95
2022/08/08 05:31:11;;;;;;;10.98;4.00;;;;;;;;;;6212178;23;20023;-95
2022/08/08 05:33:39;;;;;;;5.63;3.90;;;;;;;;;;6212793;23;20087;-96
2022/08/08 05:36:10;;;;;;;10.35;3.70;;;;;;;;;;6212009;23;20056;-96
2022/08/08 05:38:41;;;;;;;7.63;3.60;;;;;;;;;;6213515;23;20014;-96
2022/08/08 05:41:09;;;;;;;18.50;4.07;;;;;;;;;;6212225;23;20169;-96
2022/08/08 05:43:37;;;;;;;13.73;3.75;;;;;;;;;;6216110;23;20012;-94
2022/08/08 05:46:07;;;;;;;8.98;3.30;;;;;;;;;;6216085;23;20091;-92
2022/08/08 05:48:34;;;;;;;7.47;3.60;;;;;;;;;;6221750;23;20034;-95
2022/08/08 05:51:02;;;;;;;12.02;3.95;;;;;;;;;;6227097;23;20004;-95
2022/08/08 05:53:31;;;;;;;12.55;3.70;;;;;;;;;;6229538;23;20012;-94
2022/08/08 05:55:59;;;;;;;10.65;3.65;;;;;;;;;;6230180;23;20023;-95
2022/08/08 05:58:33;;;;;;;9.98;3.83;;;;;;;;;;6234982;22;20020;-94
2022/08/08 06:01:03;;;;;;;13.43;3.78;;;;;;;;;;6232188;23;20016;-91
2022/08/08 06:03:33;;;;;;;13.60;3.90;;;;;;;;;;6210941;23;20015;-90
2022/08/08 06:06:05;;;;;;;11.88;3.45;;;;;;;;;;6238601;23;20000;-89
2022/08/08 06:08:36;;;;;;;13.38;3.65;;;;;;;;;;6220762;23;20004;-95
2022/08/08 06:11:04;;;;;;;12.55;3.38;;;;;;;;;;6229266;23;20011;-93
2022/08/08 06:13:34;;;;;;;10.25;3.75;;;;;;;;;;6256046;23;20384;-93
2022/08/08 06:16:00;;;;;;;8.68;3.30;;;;;;;;;;6233710;23;20012;-92
2022/08/08 06:18:29;;;;;;;12.18;4.22;;;;;;;;;;6238798;22;20023;-93
2022/08/08 06:20:59;;;;;;;9.18;4.05;;;;;;;;;;6240290;23;20004;-93
2022/08/08 06:23:27;;;;;;;10.98;3.40;;;;;;;;;;6239831;23;20023;-92
2022/08/08 06:26:03;;;;;;;8.45;3.33;;;;;;;;;;6240326;23;20003;-93
2022/08/08 06:28:33;;;;;;;;;;;;;;;;;;6228560;22;20023;-95
2022/08/08 06:31:02;;;;;;;7.35;4.03;;;;;;;;;;6186161;23;19904;-93
2022/08/08 06:36:10;;;;;;;7.07;3.20;;;;;;;;;;6234555;22;20024;-90
2022/08/08 06:38:41;;;;;;;8.55;3.40;;;;;;;;;;6210668;23;20032;-91
2022/08/08 06:41:18;;;;;;;8.23;3.65;;;;;;;;;;6208456;23;20087;-89
2022/08/08 06:43:47;;;;;;;6.68;3.20;;;;;;;;;;6211094;23;20161;-93
2022/08/08 06:46:16;;;;;;;17.23;3.60;;;;;;;;;;6238123;23;20069;-92
2022/08/08 06:48:44;;;;;;;10.25;3.08;;;;;;;;;;6212384;23;20034;-93
2022/08/08 06:51:19;;;;;;;9.57;3.30;;;;;;;;;;6213089;23;20512;-96
2022/08/08 06:53:46;;;;;;;10.57;3.40;;;;;;;;;;6238794;23;20445;-94
2022/08/08 06:56:16;;;;;;;8.20;3.42;;;;;;;;;;6210970;23;20039;-93
2022/08/08 06:58:43;;;;;;;11.43;2.95;;;;;;;;;;6211109;23;20460;-95
2022/08/08 07:01:12;;;;;;;9.13;3.13;;;;;;;;;;6211442;23;20057;-92
2022/08/08 07:03:55;;;;;;;6.70;2.85;;;;;;;;;;6214982;23;20035;-96
2022/08/08 07:06:23;;;;;;;8.23;2.72;;;;;;;;;;6202344;23;20007;-90
2022/08/08 07:08:55;;;;;;;6.32;2.75;;;;;;;;;;6172754;23;20553;-90
2022/08/08 07:11:26;;;;;;;9.60;2.58;;;;;;;;;;6208468;23;20000;-90
2022/08/08 07:13:56;;;;;;;5.72;2.33;;;;;;;;;;6210078;23;20432;-90
2022/08/08 07:16:24;;;;;;;8.43;2.45;;;;;;;;;;6209890;23;20061;-90
2022/08/08 07:18:53;;;;;;;9.18;3.67;;;;;;;;;;6210079;23;20008;-90
2022/08/08 07:21:22;;;;;;;8.15;3.13;;;;;;;;;;6209295;23;20004;-89
2022/08/08 07:23:58;;;;;;;5.65;2.60;;;;;;;;;;6207344;23;20034;-89
2022/08/08 07:26:32;;;;;;;6.72;4.40;;;;;;;;;;6209881;23;20011;-89
2022/08/08 07:28:59;;;;;;;10.43;3.10;;;;;;;;;;6210407;23;20118;-89
2022/08/08 07:31:26;;;;;;;7.72;2.47;;;;;;;;;;6208268;23;20008;-90
2022/08/08 07:33:53;;;;;;;9.07;2.30;;;;;;;;;;6207644;22;20099;-90
2022/08/08 07:36:22;;;;;;;5.25;2.38;;;;;;;;;;6235232;23;20019;-91
2022/08/08 07:38:50;;;;;;;8.25;2.17;;;;;;;;;;6209394;23;20340;-90
2022/08/08 07:41:19;;;;;;;5.60;2.13;;;;;;;;;;6207799;23;20015;-90
2022/08/08 07:43:45;;;;;;;6.32;1.55;;;;;;;;;;6210193;23;20008;-90
2022/08/08 07:46:11;;;;;;;4.97;1.80;;;;;;;;;;6210688;23;20011;-90
2022/08/08 07:48:39;;;;;;;6.10;1.40;;;;;;;;;;6238377;23;20008;-90
2022/08/08 07:51:05;;;;;;;5.55;1.88;;;;;;;;;;6208856;23;20083;-90
2022/08/08 07:53:53;;;;;;;7.45;1.60;;;;;;;;;;6209994;23;20004;-90
2022/08/08 07:56:20;;;;;;;6.75;1.80;;;;;;;;;;6207889;23;20014;-90
2022/08/08 07:58:47;;;;;;;3.75;1.55;;;;;;;;;;6210022;23;20008;-90
2022/08/08 08:01:19;;;;;;;4.07;1.67;;;;;;;;;;6209750;23;20455;-90
2022/08/08 08:03:52;;;;;;;3.97;1.48;;;;;;;;;;6209408;23;20917;-90
2022/08/08 08:06:21;;;;;;;2.17;1.42;;;;;;;;;;6209895;23;20054;-90
2022/08/08 08:08:48;;;;;;;2.05;0.90;;;;;;;;;;6238871;23;20424;-90
2022/08/08 08:11:17;;;;;;;2.83;1.02;;;;;;;;;;6234782;23;20421;-90
2022/08/08 08:13:52;;;;;;;4.30;1.08;;;;;;;;;;6238399;23;20391;-89
2022/08/08 08:16:25;;;;;;;4.97;1.17;;;;;;;;;;6208500;23;20535;-89
2022/08/08 08:18:59;;;;;;;3.15;1.13;;;;;;;;;;6208415;23;20008;-90
2022/08/08 08:21:29;;;;;;;4.00;1.10;;;;;;;;;;6208445;23;20012;-90
2022/08/08 08:23:56;;;;;;;5.53;1.83;;;;;;;;;;6209641;23;20491;-90
2022/08/08 08:26:24;;;;;;;4.05;1.00;;;;;;;;;;6206804;23;20487;-89
2022/08/08 08:28:50;;;;;;;2.10;1.10;;;;;;;;;;6238038;23;20000;-89
2022/08/08 08:31:16;;;;;;;4.30;1.30;;;;;;;;;;6208026;23;20015;-89
2022/08/08 08:33:43;;;;;;;2.55;1.23;;;;;;;;;;6207618;23;20441;-89
2022/08/08 08:36:10;;;;;;;6.10;1.73;;;;;;;;;;6192515;22;20020;-89
2022/08/08 08:38:37;;;;;;;4.15;1.15;;;;;;;;;;6174308;23;20021;-90
2022/08/08 08:41:05;;;;;;;2.08;1.20;;;;;;;;;;6200763;23;20012;-89
2022/08/08 08:43:32;;;;;;;1.95;1.38;;;;;;;;;;6174332;23;20675;-89
2022/08/08 08:45:59;;;;;;;1.52;1.02;;;;;;;;;;6172560;23;20059;-89
2022/08/08 08:48:29;;;;;;;4.00;1.40;;;;;;;;;;6204869;23;20433;-89
2022/08/08 08:50:55;;;;;;;4.85;1.50;;;;;;;;;;6175004;23;20009;-88
2022/08/08 08:53:25;;;;;;;6.10;1.40;;;;;;;;;;6174375;23;20017;-88
2022/08/08 08:55:55;;;;;;;6.43;1.48;;;;;;;;;;6175615;23;20009;-89
2022/08/08 08:58:31;;;;;;;3.95;1.98;;;;;;;;;;6208478;23;20079;-88
2022/08/08 09:01:03;;;;;;;3.83;1.35;;;;;;;;;;6206683;23;20070;-88
2022/08/08 09:03:30;;;;;;;4.07;1.50;;;;;;;;;;6175874;23;20565;-89
2022/08/08 09:05:59;;;;;;;3.67;1.20;;;;;;;;;;6174575;23;20044;-88
2022/08/08 09:08:27;;;;;;;3.33;1.20;;;;;;;;;;6175820;23;20013;-87
2022/08/08 09:10:57;;;;;;;8.32;1.40;;;;;;;;;;6176030;23;20010;-87
2022/08/08 09:13:23;;;;;;;26.65;2.38;;;;;;;;;;6175061;23;20008;-88
2022/08/08 09:15:55;;;;;;;41.75;2.53;;;;;;;;;;6175799;23;20045;-88
2022/08/08 09:18:30;;;;;;;8.15;1.88;;;;;;;;;;6167974;23;20066;-87
2022/08/08 09:20:58;;;;;;;2.97;1.55;;;;;;;;;;6180959;23;20012;-87
2022/08/08 09:23:26;;;;;;;2.90;1.20;;;;;;;;;;6175448;23;20009;-88
2022/08/08 09:25:58;;;;;;;6.28;1.20;;;;;;;;;;6176315;23;20009;-87
2022/08/08 09:28:27;;;;;;;5.18;1.23;;;;;;;;;;6178242;23;20005;-88
2022/08/08 09:31:00;;;;;;;2.83;1.17;;;;;;;;;;6177328;23;20011;-87
2022/08/08 09:33:28;;;;;;;2.90;1.10;;;;;;;;;;6177161;23;20009;-88
2022/08/08 09:36:01;;;;;;;2.97;1.52;;;;;;;;;;6188239;22;20402;-88
2022/08/08 09:38:39;;;;;;;2.83;1.23;;;;;;;;;;6229051;23;20008;-87
2022/08/08 09:41:07;;;;;;;3.45;1.15;;;;;;;;;;6207687;23;20012;-87
2022/08/08 09:43:44;;;;;;;5.47;1.10;;;;;;;;;;6211343;23;20395;-87
2022/08/08 09:46:14;;;;;;;4.82;1.20;;;;;;;;;;6209913;23;20329;-87
2022/08/08 09:48:44;;;;;;;2.85;1.08;;;;;;;;;;6239448;23;20001;-87
2022/08/08 09:51:16;;;;;;;4.00;1.10;;;;;;;;;;6211444;23;20483;-87
2022/08/08 09:54:04;;;;;;;6.10;0.90;;;;;;;;;;6210934;23;20014;-87
2022/08/08 09:56:42;;;;;;;2.00;0.90;;;;;;;;;;6194625;23;20008;-88
2022/08/08 09:59:12;;;;;;;7.05;1.50;;;;;;;;;;6208401;23;20035;-87
2022/08/08 10:01:38;;;;;;;2.90;1.10;;;;;;;;;;6239237;23;20004;-88
2022/08/08 10:04:09;;;;;;;3.78;1.30;;;;;;;;;;6215960;23;20012;-87
2022/08/08 10:06:41;;;;;;;2.78;1.15;;;;;;;;;;6215735;23;20008;-87
2022/08/08 10:09:09;;;;;;;6.15;1.30;;;;;;;;;;6217409;23;20057;-87
2022/08/08 10:11:37;;;;;;;2.30;0.90;;;;;;;;;;6217764;23;20425;-88
2022/08/08 10:14:06;;;;;;;2.47;1.00;;;;;;;;;;6248773;23;20000;-87
2022/08/08 10:16:37;;;;;;;2.35;1.30;;;;;;;;;;6220376;23;20031;-87
2022/08/08 10:19:04;;;;;;;5.00;1.10;;;;;;;;;;6219754;23;20009;-88
2022/08/08 10:21:38;;;;;;;4.00;1.30;;;;;;;;;;6217814;23;20012;-89
2022/08/08 10:24:10;;;;;;;4.75;1.27;;;;;;;;;;6241734;23;20011;-86
2022/08/08 10:26:42;;;;;;;1.52;0.95;;;;;;;;;;6215975;23;20004;-88
2022/08/08 10:29:09;;;;;;;2.03;1.40;;;;;;;;;;6218177;23;20000;-88
2022/08/08 10:34:14;;;;;;;3.38;1.10;;;;;;;;;;6218240;22;20414;-91
2022/08/08 10:36:45;;;;;;;4.32;1.15;;;;;;;;;;6235185;23;20057;-89
2022/08/08 10:39:17;;;;;;;2.40;0.98;;;;;;;;;;6207506;23;20005;-88
2022/08/08 10:41:45;;;;;;;3.13;0.98;;;;;;;;;;6231399;23;20000;-90
2022/08/08 10:44:18;;;;;;;2.85;1.05;;;;;;;;;;6231920;23;20343;-90
2022/08/08 10:46:45;;;;;;;4.20;1.17;;;;;;;;;;6210050;23;20424;-89
2022/08/08 10:49:19;;;;;;;10.07;1.33;;;;;;;;;;6237888;23;20000;-89
2022/08/08 10:51:47;;;;;;;4.65;1.20;;;;;;;;;;6208653;23;20537;-89
2022/08/08 10:54:22;;;;;;;5.75;1.35;;;;;;;;;;6211101;23;20102;-90
2022/08/08 10:57:02;;;;;;;5.72;1.23;;;;;;;;;;6205525;23;20070;-89
2022/08/08 10:59:29;;;;;;;6.10;1.67;;;;;;;;;;6206377;23;20534;-89
2022/08/08 11:01:57;;;;;;;6.30;1.33;;;;;;;;;;6232871;23;20032;-90
2022/08/08 11:04:25;;;;;;;3.05;1.17;;;;;;;;;;6205779;23;20486;-88
2022/08/08 11:07:02;;;;;;;4.43;1.27;;;;;;;;;;6236075;23;20510;-88
2022/08/08 11:09:48;;;;;;;4.88;1.08;;;;;;;;;;6207252;23;20503;-93
2022/08/08 11:12:17;;;;;;;1.85;0.85;;;;;;;;;;6208132;23;20083;-92
2022/08/08 11:14:55;;;;;;;3.17;1.20;;;;;;;;;;6209682;23;20004;-88
2022/08/08 11:17:25;;;;;;;5.00;1.40;;;;;;;;;;6210665;23;20007;-89
2022/08/08 11:19:53;;;;;;;2.47;1.23;;;;;;;;;;6238148;23;20027;-89
2022/08/08 11:22:24;;;;;;;3.08;1.00;;;;;;;;;;6211026;23;20008;-89
2022/08/08 11:24:54;;;;;;;3.67;1.38;;;;;;;;;;6209443;23;20313;-89
2022/08/08 11:27:24;;;;;;;3.92;1.40;;;;;;;;;;6209928;23;20491;-89
2022/08/08 11:29:56;;;;;;;4.13;1.20;;;;;;;;;;6210201;23;20012;-90
2022/08/08 11:32:24;;;;;;;7.53;1.25;;;;;;;;;;6239870;22;20004;-90
2022/08/08 11:35:01;;;;;;;4.88;1.30;;;;;;;;;;6236107;22;20012;-89
2022/08/08 11:37:31;;;;;;;5.18;1.17;;;;;;;;;;6226654;23;20015;-89
2022/08/08 11:40:07;;;;;;;3.72;1.40;;;;;;;;;;6236671;23;20001;-90
2022/08/08 11:42:35;;;;;;;3.25;1.48;;;;;;;;;;6236477;23;20440;-88
2022/08/08 11:45:05;;;;;;;6.38;1.17;;;;;;;;;;6237133;23;20000;-88
2022/08/08 11:47:34;;;;;;;2.30;1.20;;;;;;;;;;6236356;23;20008;-89
2022/08/08 11:50:05;;;;;;;4.25;1.05;;;;;;;;;;6234189;23;20443;-89
2022/08/08 11:52:34;;;;;;;2.67;1.25;;;;;;;;;;6234550;23;20440;-89
2022/08/08 11:55:02;;;;;;;3.13;1.08;;;;;;;;;;6234126;23;20027;-90
2022/08/08 11:57:32;;;;;;;3.10;1.10;;;;;;;;;;6233047;23;20430;-89
2022/08/08 12:00:05;;;;;;;2.95;1.15;;;;;;;;;;6235511;23;20000;-89
2022/08/08 12:02:47;;;;;;;1.83;0.90;;;;;;;;;;6232369;23;20366;-90
2022/08/08 12:05:15;;;;;;;1.80;0.95;;;;;;;;;;6235421;23;20366;-90
2022/08/08 12:07:53;;;;;;;3.15;0.98;;;;;;;;;;6233961;23;20235;-89
2022/08/08 12:10:27;;;;;;;5.20;1.00;;;;;;;;;;6236628;23;20305;-88
2022/08/08 12:13:08;;;;;;;2.60;1.23;;;;;;;;;;6234320;23;20235;-89
2022/08/08 12:15:37;;;;;;;3.72;1.23;;;;;;;;;;6234458;23;20034;-89
2022/08/08 12:18:18;;;;;;;2.63;1.30;;;;;;;;;;6234559;23;20432;-88
2022/08/08 12:20:45;;;;;;;3.75;0.95;;;;;;;;;;6236882;23;20035;-89
2022/08/08 12:23:13;;;;;;;6.05;1.10;;;;;;;;;;6239192;23;20332;-91
2022/08/08 12:25:41;;;;;;;1.90;0.80;;;;;;;;;;6235868;23;20084;-90
2022/08/08 12:28:13;;;;;;;3.10;1.00;;;;;;;;;;6233999;23;20440;-90
2022/08/08 12:30:42;;;;;;;2.17;1.10;;;;;;;;;;6233582;23;20452;-90
2022/08/08 12:33:19;;;;;;;4.07;1.30;;;;;;;;;;6236290;23;20023;-91
2022/08/08 12:35:48;;;;;;;3.65;1.40;;;;;;;;;;6232684;23;20118;-91
2022/08/08 12:38:17;;;;;;;2.35;1.10;;;;;;;;;;6235882;23;20032;-90
2022/08/08 12:40:48;;;;;;;6.88;1.05;;;;;;;;;;6233195;23;20451;-90
2022/08/08 12:43:18;;;;;;;2.85;0.90;;;;;;;;;;6235854;23;20399;-90
2022/08/08 12:45:46;;;;;;;2.67;1.10;;;;;;;;;;6234746;23;20455;-90
2022/08/08 12:48:19;;;;;;;3.63;1.35;;;;;;;;;;6233703;23;20066;-90
2022/08/08 12:50:49;;;;;;;3.92;1.15;;;;;;;;;;6236596;23;20004;-90
2022/08/08 12:53:26;;;;;;;2.05;0.90;;;;;;;;;;6233134;23;20009;-90
2022/08/08 12:56:01;;;;;;;1.05;0.88;;;;;;;;;;6233518;23;20008;-90
2022/08/08 12:58:28;;;;;;;3.25;1.27;;;;;;;;;;6233268;23;20463;-89
2022/08/08 13:01:09;;;;;;;3.92;1.10;;;;;;;;;;6234541;23;20008;-90
2022/08/08 13:03:44;;;;;;;3.22;1.00;;;;;;;;;;6233901;23;20014;-90
2022/08/08 13:06:16;;;;;;;2.40;1.13;;;;;;;;;;6237567;23;20454;-90
2022/08/08 13:08:51;;;;;;;5.47;1.05;;;;;;;;;;6239419;23;20439;-88
2022/08/08 13:11:25;;;;;;;2.03;0.88;;;;;;;;;;6241667;23;20016;-89
2022/08/08 13:13:57;;;;;;;4.03;1.17;;;;;;;;;;6244434;23;20011;-87
2022/08/08 13:16:25;;;;;;;3.03;1.40;;;;;;;;;;6252845;23;20039;-91
2022/08/08 13:18:51;;;;;;;2.60;1.13;;;;;;;;;;6256421;23;20099;-91
2022/08/08 13:21:19;;;;;;;1.42;0.70;;;;;;;;;;6252981;23;20012;-89
2022/08/08 13:23:46;;;;;;;4.38;0.95;;;;;;;;;;6255947;23;20031;-90
2022/08/08 13:26:13;;;;;;;1.48;1.27;;;;;;;;;;6250602;23;20444;-89
2022/08/08 13:28:42;;;;;;;3.67;0.90;;;;;;;;;;6245567;23;20000;-90
2022/08/08 13:31:12;;;;;;;2.92;1.40;;;;;;;;;;6237659;23;20340;-90
2022/08/08 13:33:41;;;;;;;1.63;0.90;;;;;;;;;;6243173;22;20039;-90
2022/08/08 13:36:10;;;;;;;3.28;0.95;;;;;;;;;;6239836;22;20085;-91
2022/08/08 13:38:37;;;;;;;3.00;0.90;;;;;;;;;;6240420;22;20032;-90
2022/08/08 13:41:05;;;;;;;2.85;1.05;;;;;;;;;;6238609;22;20008;-90
2022/08/08 13:43:36;;;;;;;3.15;1.10;;;;;;;;;;6242203;22;20463;-89
2022/08/08 13:46:08;;;;;;;1.52;1.10;;;;;;;;;;6239128;22;20007;-90
2022/08/08 13:48:44;;;;;;;2.85;1.17;;;;;;;;;;6240188;22;20003;-90
2022/08/08 13:51:13;;;;;;;3.05;1.00;;;;;;;;;;6268078;22;20391;-91
2022/08/08 13:53:54;;;;;;;2.85;1.23;;;;;;;;;;6238580;22;20442;-90
2022/08/08 13:56:40;;;;;;;3.60;0.90;;;;;;;;;;6238076;22;20004;-89
2022/08/08 13:59:06;;;;;;;4.68;1.27;;;;;;;;;;6241299;22;20410;-90
2022/08/08 14:01:33;;;;;;;7.18;1.67;;;;;;;;;;6267170;22;20003;-90
2022/08/08 14:04:03;;;;;;;3.35;1.42;;;;;;;;;;6238693;22;20016;-91
2022/08/08 14:06:31;;;;;;;4.97;1.13;;;;;;;;;;6238067;22;20367;-91
2022/08/08 14:09:02;;;;;;;3.95;1.10;;;;;;;;;;6239431;22;20014;-90
2022/08/08 14:11:35;;;;;;;6.03;1.70;;;;;;;;;;6237402;22;20015;-90
2022/08/08 14:14:04;;;;;;;3.22;1.10;;;;;;;;;;6239359;22;20007;-91
2022/08/08 14:16:31;;;;;;;3.28;1.20;;;;;;;;;;6239373;22;20015;-90
2022/08/08 14:19:03;;;;;;;2.38;1.27;;;;;;;;;;6240395;22;20015;-91
2022/08/08 14:21:46;;;;;;;2.97;1.35;;;;;;;;;;6240960;22;20069;-90
2022/08/08 14:24:14;;;;;;;3.55;1.10;;;;;;;;;;6267866;22;20331;-90
2022/08/08 14:26:44;;;;;;;4.57;0.95;;;;;;;;;;6238643;22;20014;-90
2022/08/08 14:29:21;;;;;;;6.97;1.10;;;;;;;;;;6266181;22;20443;-91
2022/08/08 14:31:50;;;;;;;4.75;1.02;;;;;;;;;;6267066;22;20121;-90
2022/08/08 14:34:21;;;;;;;2.08;0.90;;;;;;;;;;6232964;22;20024;-90
2022/08/08 14:36:50;;;;;;;3.25;0.85;;;;;;;;;;6237355;23;20039;-91
2022/08/08 14:39:19;;;;;;;1.02;0.93;;;;;;;;;;6235782;23;20011;-90
2022/08/08 14:41:46;;;;;;;3.30;0.82;;;;;;;;;;6236189;23;20085;-89
2022/08/08 14:44:15;;;;;;;5.03;1.40;;;;;;;;;;6232669;23;20497;-90
2022/08/08 14:46:44;;;;;;;2.72;1.13;;;;;;;;;;6233385;23;20431;-91
2022/08/08 14:49:16;;;;;;;2.92;0.65;;;;;;;;;;6234447;23;20004;-91
2022/08/08 14:51:47;;;;;;;2.88;1.00;;;;;;;;;;6232417;23;20008;-90
2022/08/08 14:54:14;;;;;;;3.92;0.90;;;;;;;;;;6233806;23;20012;-91
2022/08/08 14:56:40;;;;;;;3.85;1.17;;;;;;;;;;6232560;23;20355;-90
2022/08/08 14:59:14;;;;;;;3.60;1.20;;;;;;;;;;6234115;23;20844;-90
2022/08/08 15:01:48;;;;;;;1.48;0.82;;;;;;;;;;6234858;23;20335;-91
2022/08/08 15:04:18;;;;;;;1.70;0.93;;;;;;;;;;6233302;23;20445;-90
2022/08/08 15:06:47;;;;;;;1.65;0.98;;;;;;;;;;6234026;23;20004;-89
2022/08/08 15:09:16;;;;;;;1.83;1.00;;;;;;;;;;6236282;23;20004;-90
2022/08/08 15:11:51;;;;;;;1.88;1.00;;;;;;;;;;6236563;23;20352;-90
2022/08/08 15:14:18;;;;;;;12.88;1.17;;;;;;;;;;6236292;23;20040;-90
2022/08/08 15:16:49;;;;;;;1.85;1.00;;;;;;;;;;6236583;23;20074;-88
2022/08/08 15:19:19;;;;;;;3.67;0.93;;;;;;;;;;6236410;23;20360;-89